createdAt,value
2019-02-11T00:04:25.918Z,94.69
2019-02-11T00:10:30.465Z,95.54
2019-02-11T00:16:35.921Z,94.40
2019-02-11T00:22:40.457Z,95.56
2019-02-11T00:28:45.014Z,95.58
2019-02-11T00:34:49.540Z,96.09
2019-02-11T00:40:54.160Z,97.18
2019-02-11T00:47:00.296Z,97.27
2019-02-11T00:53:08.151Z,97.24
2019-02-11T00:59:12.713Z,97.75
2019-02-11T01:05:17.240Z,97.91
2019-02-11T01:11:21.852Z,98.07
2019-02-11T01:17:26.474Z,97.54
2019-02-11T01:23:31.012Z,97.34
2019-02-11T01:29:35.566Z,96.90
2019-02-11T01:35:40.102Z,96.15
2019-02-11T01:41:44.650Z,96.33
2019-02-11T01:47:49.187Z,96.10
2019-02-11T01:53:53.764Z,95.59
2019-02-11T02:06:08.143Z,95.31
2019-02-11T02:12:12.697Z,94.98
2019-02-11T02:18:17.239Z,95.15
2019-02-11T02:24:21.785Z,95.28
2019-02-11T02:30:26.329Z,94.42
2019-02-11T02:36:30.868Z,94.59
2019-02-11T02:42:35.411Z,94.62
2019-02-11T02:48:39.948Z,94.77
2019-02-11T02:54:44.491Z,95.83
2019-02-11T03:00:49.037Z,97.02
2019-02-11T03:06:53.672Z,97.48
2019-02-11T03:12:58.213Z,97.48
2019-02-11T03:19:02.853Z,97.03
2019-02-11T03:25:09.206Z,96.38
2019-02-11T03:31:13.827Z,96.33
2019-02-11T03:37:18.389Z,97.05
2019-02-11T03:43:25.176Z,96.99
2019-02-11T03:49:29.736Z,97.54
2019-02-11T03:55:34.487Z,97.73
2019-02-11T04:01:39.045Z,97.45
2019-02-11T04:07:43.592Z,96.78
2019-02-11T04:13:48.201Z,96.67
2019-02-11T04:19:52.740Z,96.20
2019-02-11T04:25:57.275Z,95.63
2019-02-11T04:32:01.819Z,92.87
2019-02-11T04:38:06.415Z,91.17
2019-02-11T04:44:13.904Z,90.80
2019-02-11T04:50:18.807Z,92.48
2019-02-11T04:56:27.066Z,93.89
2019-02-11T05:02:31.630Z,94.58
2019-02-11T05:08:36.180Z,93.90
2019-02-11T05:14:43.970Z,92.50
2019-02-11T05:20:48.194Z,90.21
2019-02-11T05:26:52.740Z,89.33
2019-02-11T05:32:57.371Z,89.16
2019-02-11T05:39:02.131Z,88.61
2019-02-11T05:45:08.768Z,88.99
2019-02-11T05:51:13.310Z,91.21
2019-02-11T05:57:17.920Z,91.79
2019-02-11T06:03:22.481Z,92.16
2019-02-11T06:09:29.001Z,92.85
2019-02-11T06:15:33.569Z,91.56
2019-02-11T06:21:38.113Z,91.20
2019-02-11T06:27:42.658Z,88.75
2019-02-11T06:33:47.214Z,87.40
2019-02-11T06:39:53.403Z,83.84
2019-02-11T06:45:57.938Z,82.72
2019-02-11T06:52:02.657Z,84.01
2019-02-11T06:58:07.199Z,85.26
2019-02-11T07:04:11.753Z,85.52
2019-02-11T07:10:16.298Z,85.82
2019-02-11T07:16:20.845Z,82.31
2019-02-11T07:22:25.375Z,80.62
2019-02-11T07:28:29.913Z,80.02
2019-02-11T07:34:37.274Z,80.76
2019-02-11T07:40:41.821Z,82.13
2019-02-11T07:46:46.543Z,82.21
2019-02-11T07:52:51.096Z,83.25
2019-02-11T07:58:55.636Z,82.22
2019-02-11T08:05:01.675Z,82.46
2019-02-11T08:11:06.223Z,82.44
2019-02-11T08:17:10.784Z,80.80
2019-02-11T08:23:16.282Z,79.79
2019-02-11T08:29:20.830Z,81.51
2019-02-11T08:35:25.445Z,83.99
2019-02-11T08:41:29.994Z,87.51
2019-02-11T08:47:35.800Z,89.14
2019-02-11T08:53:43.576Z,90.35
2019-02-11T08:59:48.183Z,92.48
2019-02-11T09:05:53.861Z,94.23
2019-02-11T09:11:58.410Z,94.83
2019-02-11T09:18:03.445Z,96.40
2019-02-11T09:24:08.123Z,97.06
2019-02-11T09:30:16.289Z,96.09
2019-02-11T09:36:20.834Z,95.80
2019-02-11T09:42:26.590Z,95.96
2019-02-11T09:48:31.148Z,95.55
2019-02-11T09:54:35.743Z,94.90
2019-02-11T10:00:40.293Z,93.89
2019-02-11T10:06:44.838Z,91.30
2019-02-11T10:12:49.372Z,88.71
2019-02-11T10:18:55.820Z,89.24
2019-02-11T10:25:00.371Z,88.18
2019-02-11T10:31:05.055Z,90.25
2019-02-11T10:37:09.671Z,89.48
2019-02-11T10:43:14.208Z,89.15
2019-02-11T10:49:18.774Z,87.04
2019-02-11T10:55:23.789Z,85.84
2019-02-11T11:01:28.398Z,83.52
2019-02-11T11:07:34.788Z,82.74
2019-02-11T11:13:39.672Z,82.61
2019-02-11T11:19:44.220Z,81.42
2019-02-11T11:25:48.899Z,79.40
2019-02-11T11:31:53.474Z,80.21
2019-02-11T11:37:58.971Z,79.05
2019-02-11T11:44:03.647Z,78.57
2019-02-11T11:50:10.367Z,73.94
2019-02-11T11:56:15.069Z,71.45
2019-02-11T12:02:19.787Z,71.24
2019-02-11T12:08:24.393Z,73.32
2019-02-11T12:14:29.000Z,72.09
2019-02-11T12:20:34.387Z,75.31
2019-02-11T12:26:39.347Z,81.46
2019-02-11T12:32:43.953Z,85.78
2019-02-11T12:38:48.571Z,82.49
2019-02-11T12:44:53.124Z,81.34
2019-02-11T12:50:57.671Z,78.00
2019-02-11T12:57:05.517Z,76.64
2019-02-11T13:03:10.059Z,78.28
2019-02-11T13:09:14.716Z,79.60
2019-02-11T13:15:56.840Z,79.58
2019-02-11T13:21:28.651Z,79.74
2019-02-11T13:27:33.190Z,78.49
2019-02-11T13:33:37.724Z,74.85
2019-02-11T13:39:43.588Z,66.57
2019-02-11T13:45:48.223Z,64.28
2019-02-11T13:51:52.811Z,63.56
2019-02-11T13:57:57.828Z,61.63
2019-02-11T14:04:02.499Z,63.20
2019-02-11T14:10:07.952Z,64.46
2019-02-11T14:16:12.505Z,65.11
2019-02-11T14:22:17.039Z,64.06
2019-02-11T14:28:21.677Z,63.50
2019-02-11T14:34:26.217Z,64.86
2019-02-11T14:40:32.404Z,65.48
2019-02-11T14:46:36.936Z,66.02
2019-02-11T14:52:41.548Z,66.86
2019-02-11T14:58:46.094Z,66.83
2019-02-11T15:04:50.650Z,65.03
2019-02-11T15:10:57.621Z,64.92
2019-02-11T15:17:04.477Z,63.61
2019-02-11T15:23:09.001Z,62.42
2019-02-11T15:29:13.537Z,62.65
2019-02-11T15:35:18.151Z,63.79
2019-02-11T15:41:22.690Z,63.91
2019-02-11T15:47:27.257Z,64.84
2019-02-11T15:53:35.294Z,65.14
2019-02-11T15:59:39.906Z,65.11
2019-02-11T16:05:49.653Z,62.38
2019-02-11T16:11:54.304Z,61.87
2019-02-11T16:17:58.860Z,63.36
2019-02-11T16:24:03.422Z,63.65
2019-02-11T16:30:15.368Z,65.86
2019-02-11T16:36:19.898Z,65.93
2019-02-11T16:42:24.461Z,67.17
2019-02-11T16:48:31.770Z,67.39
2019-02-11T16:54:36.327Z,67.98
2019-02-11T17:00:41.532Z,68.35
2019-02-11T17:06:46.075Z,68.82
2019-02-11T17:12:50.627Z,69.26
2019-02-11T17:18:55.251Z,69.39
2019-02-11T17:24:59.800Z,69.54
2019-02-11T17:31:04.413Z,70.22
2019-02-11T17:37:09.041Z,70.46
2019-02-11T17:43:13.583Z,70.27
2019-02-11T17:49:18.132Z,69.69
2019-02-11T17:55:22.809Z,69.87
2019-02-11T18:01:27.502Z,69.67
2019-02-11T18:07:32.042Z,69.32
2019-02-11T18:13:36.589Z,69.41
2019-02-11T18:19:41.142Z,68.32
2019-02-11T18:25:45.836Z,67.72
2019-02-11T18:31:50.384Z,68.07
2019-02-11T18:37:54.926Z,68.90
2019-02-11T18:43:59.481Z,68.54
2019-02-11T18:50:05.977Z,68.26
2019-02-11T18:56:10.535Z,68.05
2019-02-11T19:02:15.273Z,68.13
2019-02-11T19:08:19.836Z,67.87
2019-02-11T19:14:24.472Z,68.27
2019-02-11T19:20:33.703Z,67.51
2019-02-11T19:26:38.266Z,67.92
2019-02-11T19:32:43.479Z,67.53
2019-02-11T19:38:48.024Z,66.75
2019-02-11T19:44:52.584Z,65.56
2019-02-11T19:50:57.123Z,64.86
2019-02-11T19:57:01.706Z,65.65
2019-02-11T20:03:06.345Z,65.98
2019-02-11T20:09:10.954Z,66.38
2019-02-11T20:15:22.250Z,66.53
2019-02-11T20:21:26.777Z,66.49
2019-02-11T20:27:31.381Z,67.04
2019-02-11T20:33:35.951Z,66.47
2019-02-11T20:39:42.070Z,67.43
2019-02-11T20:45:46.968Z,66.53
2019-02-11T20:51:53.706Z,67.46
2019-02-11T20:58:01.959Z,67.88
2019-02-11T21:04:06.865Z,67.95
2019-02-11T21:10:14.859Z,68.27
2019-02-11T21:16:19.445Z,69.01
2019-02-11T21:22:24.135Z,70.78
2019-02-11T21:28:28.785Z,73.57
2019-02-11T21:34:33.331Z,76.24
2019-02-11T21:40:37.891Z,78.24
2019-02-11T21:46:42.443Z,77.55
2019-02-11T21:52:47.073Z,78.01
2019-02-11T21:58:51.645Z,78.63
2019-02-11T22:04:56.208Z,78.42
2019-02-11T22:11:00.757Z,77.58
2019-02-11T22:17:05.396Z,77.00
2019-02-11T22:23:10.007Z,76.97
2019-02-11T22:29:15.114Z,75.68
2019-02-11T22:35:19.672Z,73.39
2019-02-11T22:41:24.210Z,73.29
2019-02-11T22:47:28.753Z,71.01
2019-02-11T22:53:33.302Z,69.67
2019-02-11T22:59:37.854Z,67.36
2019-02-11T23:05:42.677Z,67.75
2019-02-11T23:11:47.294Z,66.85
2019-02-11T23:17:51.828Z,66.85
2019-02-11T23:23:56.363Z,66.27
2019-02-11T23:30:02.378Z,66.79
2019-02-11T23:36:06.930Z,67.35
2019-02-11T23:42:11.475Z,68.01
2019-02-11T23:48:16.025Z,67.74
2019-02-11T23:54:20.571Z,67.76
